Flight Track Log - Related Links

Times and Time Zones

All times are in EDT time to prevent confusion due to time zone crossing. See the FLG4294 flight status page for this flight to view local times or setup timezone preferences in your user account.

Time Position Orientation Groundspeed Altitude Reporting Facility
EDT Latitude Longitude Course Direction KTS MPH feet Rate Location/Type
Wed 11:30:54 PM 42.2261 -83.3378 34° Northeast 136 157 1,300  Level FAA TRACON SMA TRACON (SMA)
Wed 11:31:14 PM 42.2353 -83.3294 34° Northeast 138 159 2,000 1,846 Climbing FAA TRACON SMA TRACON (SMA)
Wed 11:31:33 PM 42.2497 -83.3172 32° Northeast 182 209 2,500 1,800 Climbing FAA TRACON SMA TRACON (SMA)
Wed 11:31:54 PM 42.2644 -83.3069 27° Northeast 201 231 3,200 2,400 Climbing FAA TRACON SMA TRACON (SMA)
Wed 11:32:13 PM 42.2836 -83.2919 30° Northeast 216 249 4,100 1,800 Climbing FAA TRACON SMA TRACON (SMA)
Wed 11:32:34 PM 42.3000 -83.2769 34° Northeast 255 293 4,400 1,500 Climbing FAA TRACON SMA TRACON (SMA)
Wed 11:32:53 PM 42.3214 -83.2578 34° Northeast 267 307 5,100 2,615 Climbing FAA TRACON SMA TRACON (SMA)
Wed 11:33:13 PM 42.3439 -83.2517 11° North 264 304 6,100 2,634 Climbing FAA TRACON SMA TRACON (SMA)
Wed 11:33:34 PM 42.3706 -83.2464 North 274 315 6,900 2,550 Climbing FAA TRACON SMA TRACON (SMA)
Wed 11:33:53 PM 42.3933 -83.2417 North 278 320 7,800 2,700 Climbing FAA TRACON SMA TRACON (SMA)
Wed 11:34:14 PM 42.4214 -83.2358 North 288 331 8,700 2,700 Climbing FAA TRACON SMA TRACON (SMA)
Wed 11:34:33 PM 42.4511 -83.2292 North 295 339 9,600 2,700 Climbing FAA TRACON SMA TRACON (SMA)
Wed 11:34:54 PM 42.4742 -83.2244 North 296 341 10,500 1,902 Climbing FAA TRACON SMA TRACON (SMA)
Wed 11:35:14 PM 42.5053 -83.2178 North 315 362 10,900 769 Climbing FAA TRACON SMA TRACON (SMA)
Wed 11:35:33 PM 42.5325 -83.2122 North 340 391 11,000 1,050 Climbing FAA TRACON SMA TRACON (SMA)
Wed 11:35:54 PM 42.5653 -83.2058 North 348 400 11,600 1,500 Climbing FAA TRACON SMA TRACON (SMA)
Wed 11:36:13 PM 42.5911 -83.2000 North 355 409 12,000 1,950 Climbing FAA TRACON SMA TRACON (SMA)
Wed 11:36:34 PM 42.6328 -83.1911 North 356 410 12,900 2,250 Climbing FAA TRACON SMA TRACON (SMA)
Wed 11:36:53 PM 42.6639 -83.1847 North 360 414 13,500 1,950 Climbing FAA TRACON SMA TRACON (SMA)
Wed 11:37:14 PM 42.7022 -83.1767 North 362 417 14,200 1,610 Climbing FAA TRACON SMA TRACON (SMA)
Wed 11:37:34 PM 42.7333 -83.1703 North 366 421 14,600 1,692 Climbing FAA TRACON SMA TRACON (SMA)
Wed 11:37:53 PM 42.7653 -83.1636 North 370 426 15,300 2,100 Climbing FAA TRACON SMA TRACON (SMA)
Wed 11:38:14 PM 42.8047 -83.1556 North 371 427 16,000 1,950 Climbing FAA TRACON SMA TRACON (SMA)
Wed 11:38:33 PM 42.8361 -83.1494 North 371 427 16,600 1,350 Climbing FAA TRACON SMA TRACON (SMA)
Wed 11:38:54 PM 42.8656 -83.1333 22° Northeast 398 458 16,900 1,050 Climbing FAA TRACON SMA TRACON (SMA)
Wed 11:39:13 PM 42.8922 -83.0992 43° Northeast 404 465 17,300 1,650 Climbing FAA TRACON SMA TRACON (SMA)
Wed 11:39:34 PM 42.9119 -83.0422 65° Northeast 431 496 18,000 1,610 Climbing FAA TRACON SMA TRACON (SMA)
Wed 11:39:54 PM 42.9228 -82.9936 73° East 442 509 18,400 1,077 Climbing FAA TRACON SMA TRACON (SMA)
Wed 11:40:13 PM 42.9336 -82.9450 73° East 444 511 18,700 1,050 Climbing FAA TRACON SMA TRACON (SMA)
Wed 11:40:34 PM 42.9475 -82.8842 73° East 438 504 19,100 1,050 Climbing FAA TRACON SMA TRACON (SMA)
Wed 11:40:53 PM 42.9578 -82.8336 74° East 444 511 19,400 900 Climbing FAA TRACON SMA TRACON (SMA)
Wed 11:41:14 PM 42.9689 -82.7839 73° East 445 512 19,700 732 Climbing FAA TRACON SMA TRACON (SMA)
Wed 11:41:34 PM 42.9744 -82.7592 73° East 443 510 19,900 300 Climbing FAA TRACON SMA TRACON (SMA)
Wed 11:41:54 PM 42.9744 -82.7592 29° Northeast 443 510 19,900 1,119 Level FAA TRACON SMA TRACON (SMA)
Wed 11:42:33 PM 43.0119 -82.5764 74° East 431 496 21,000 667 Climbing Cleveland Center
Wed 11:43:33 PM 43.0503 -82.4072 73° East 447 514 21,000  Level Cleveland Center
Wed 11:44:39 PM 43.0833 -82.1833 78° East 490 564 21,000  Level Toronto Center
Wed 11:45:39 PM 43.1167 -82.0167 75° East 500 575 21,000  Level Toronto Center
Wed 11:46:39 PM 43.1667 -81.8000 72° East 510 587 21,000  Level Toronto Center
Wed 11:47:39 PM 43.2000 -81.6167 76° East 510 587 21,000  Level Toronto Center
Wed 11:48:39 PM 43.2333 -81.4333 76° East 510 587 21,000  Level Toronto Center
Wed 11:49:39 PM 43.2667 -81.2333 77° East 500 575 21,000 -500 Level Toronto Center
Wed 11:50:39 PM 43.3000 -81.0833 73° East 500 575 20,000 -1,800 Descending Toronto Center
Wed 11:51:39 PM 43.3333 -80.9000 76° East 480 552 17,400 -2,600 Descending Toronto Center
Wed 11:52:39 PM 43.3833 -80.7333 68° East 430 495 14,800 -2,250 Descending Toronto Center
Wed 11:53:39 PM 43.4000 -80.6167 79° East 370 426 12,900 -1,850 Descending Toronto Center
Wed 11:54:39 PM 43.4333 -80.4833 71° East 350 403 11,100 -1,750 Descending Toronto Center
Wed 11:55:39 PM 43.4500 -80.3667 79° East 330 380 9,400 -1,650 Descending Toronto Center
Wed 11:56:39 PM 43.4667 -80.2500 79° East 300 345 7,800 -1,200 Descending Toronto Center
Wed 11:57:39 PM 43.4833 -80.1667 75° East 260 299 7,000 -650 Descending Toronto Center
Wed 11:58:39 PM 43.4833 -80.0667 90° East 240 276 6,500 -500 Descending Toronto Center
Wed 11:59:39 PM 43.4833 -79.9833 90° East 210 242 6,000 -700 Descending Toronto Center
Thu 12:00:39 AM 43.4833 -79.9167 90° East 200 230 5,100 -800 Descending Toronto Center
Thu 12:01:39 AM 43.5167 -79.8667 47° Northeast 180 207 4,400 -900 Descending Toronto Center
Thu 12:02:39 AM 43.5500 -79.8167 47° Northeast 150 173 3,300 -700 Descending Toronto Center
Thu 12:03:39 AM 43.5667 -79.7667 65° Northeast 150 173 3,000 -450 Descending Toronto Center
Thu 12:04:39 AM 43.6000 -79.7333 36° Northeast 160 184 2,400 -650 Descending Toronto Center
Thu 12:05:39 AM 43.6333 -79.7000 36° Northeast 140 161 1,700 -700 Descending Toronto Center
Thu 12:06:39 AM 43.6500 -79.6500 65° Northeast 130 150 1,000 -550 Descending Toronto Center
Thu 12:07:39 AM 43.6667 -79.6333 36° Northeast 110 127 600 -400 Descending Toronto Center

Login

Don't have an account? Register now (free) for customized features, flight alerts, and more!